createdAt,value
2018-11-21T00:00:37.071Z,3.4
2018-11-21T00:01:46.960Z,3.31
2018-11-21T00:02:56.829Z,3.36
2018-11-21T00:04:06.441Z,3.39
2018-11-21T00:05:16.329Z,3.35
2018-11-21T00:06:25.941Z,3.36
2018-11-21T00:07:36.093Z,3.43
2018-11-21T00:08:45.693Z,3.33
2018-11-21T00:09:55.573Z,3.32
2018-11-21T00:11:05.503Z,3.31
2018-11-21T00:12:15.656Z,3.43
2018-11-21T00:13:25.812Z,3.29
2018-11-21T00:14:35.691Z,3.35
2018-11-21T00:15:45.621Z,3.32
2018-11-21T00:16:55.790Z,3.43
2018-11-21T00:18:05.671Z,3.4
2018-11-21T00:19:15.543Z,3.45
2018-11-21T00:20:25.697Z,3.32
2018-11-21T00:21:35.846Z,3.43
2018-11-21T00:22:45.716Z,3.47
2018-11-21T00:23:55.864Z,3.42
2018-11-21T00:25:06.032Z,3.4
2018-11-21T00:26:15.924Z,3.32
2018-11-21T00:27:26.131Z,3.36
2018-11-21T00:28:36.022Z,3.51
2018-11-21T00:29:46.182Z,3.5
2018-11-21T00:30:56.343Z,3.4
2018-11-21T00:32:06.223Z,3.48
2018-11-21T00:33:16.377Z,3.48
2018-11-21T00:34:26.532Z,3.33
2018-11-21T00:35:36.686Z,3.4
2018-11-21T00:36:46.288Z,3.43
2018-11-21T00:37:56.436Z,3.39
2018-11-21T00:39:06.317Z,3.33
2018-11-21T00:40:16.471Z,3.36
2018-11-21T00:41:26.357Z,3.35
2018-11-21T00:42:35.961Z,3.31
2018-11-21T00:43:51.948Z,3.42
2018-11-21T00:45:01.827Z,3.35
2018-11-21T00:46:11.989Z,3.4
2018-11-21T00:47:22.149Z,3.47
2018-11-21T00:48:31.756Z,3.4
2018-11-21T00:49:41.649Z,3.43
2018-11-21T00:50:51.530Z,3.43
2018-11-21T00:52:01.685Z,3.32
2018-11-21T00:53:11.293Z,3.29
2018-11-21T00:54:21.451Z,3.42
2018-11-21T00:55:31.606Z,3.48
2018-11-21T00:56:41.492Z,3.39
2018-11-21T00:57:51.649Z,3.47
2018-11-21T00:59:01.798Z,3.45
2018-11-21T01:00:11.734Z,3.35
2018-11-21T01:01:21.903Z,3.4
2018-11-21T01:02:31.794Z,3.39
2018-11-21T01:03:41.950Z,3.42
2018-11-21T01:04:51.834Z,3.39
2018-11-21T01:06:01.991Z,3.35
2018-11-21T01:07:11.875Z,3.43
2018-11-21T01:08:22.034Z,3.4
2018-11-21T01:09:32.180Z,3.43
2018-11-21T01:10:42.068Z,3.42
2018-11-21T01:11:51.951Z,3.5
2018-11-21T01:13:02.102Z,3.54
2018-11-21T01:14:12.251Z,3.5
2018-11-21T01:15:22.133Z,3.35
2018-11-21T01:16:32.285Z,3.4
2018-11-21T01:17:41.901Z,3.4
2018-11-21T01:18:51.795Z,3.5
2018-11-21T01:20:01.953Z,3.58
2018-11-21T01:21:12.119Z,3.55
2018-11-21T01:22:21.728Z,3.55
2018-11-21T01:23:31.891Z,3.52
2018-11-21T01:24:41.765Z,3.5
2018-11-21T01:25:51.650Z,3.51
2018-11-21T01:27:01.813Z,3.6
2018-11-21T01:28:11.743Z,3.51
2018-11-21T01:29:21.631Z,3.55
2018-11-21T01:30:31.236Z,3.54
2018-11-21T01:31:41.394Z,3.57
2018-11-21T01:32:51.603Z,3.68
2018-11-21T01:34:01.488Z,3.57
2018-11-21T01:35:11.651Z,3.54
2018-11-21T01:36:21.538Z,3.52
2018-11-21T01:37:31.419Z,3.66
2018-11-21T01:38:41.570Z,3.7
2018-11-21T01:39:51.725Z,3.52
2018-11-21T01:41:01.882Z,3.61
2018-11-21T01:42:12.065Z,3.7
2018-11-21T01:43:22.217Z,3.51
2018-11-21T01:44:31.819Z,3.55
2018-11-21T01:45:41.702Z,3.66
2018-11-21T01:46:51.600Z,3.52
2018-11-21T01:48:01.486Z,3.54
2018-11-21T01:49:11.104Z,3.57
2018-11-21T01:50:20.990Z,3.52
2018-11-21T01:51:30.875Z,3.58
2018-11-21T01:52:41.039Z,3.6
2018-11-21T01:53:50.929Z,3.54
2018-11-21T01:55:01.078Z,3.66
2018-11-21T01:56:11.289Z,3.58
2018-11-21T01:57:21.452Z,3.57
2018-11-21T01:58:31.603Z,3.54
2018-11-21T01:59:41.763Z,3.58
2018-11-21T02:00:51.919Z,3.54
2018-11-21T02:02:01.801Z,3.57
2018-11-21T02:03:11.681Z,3.48
2018-11-21T02:04:21.863Z,3.51
2018-11-21T02:05:31.755Z,3.52
2018-11-21T02:06:41.649Z,3.52
2018-11-21T02:07:51.792Z,3.51
2018-11-21T02:09:01.680Z,3.54
2018-11-21T02:10:11.846Z,3.43
2018-11-21T02:11:21.720Z,3.55
2018-11-21T02:12:31.597Z,3.54
2018-11-21T02:13:41.216Z,3.55
2018-11-21T02:14:51.454Z,3.57
2018-11-21T02:16:01.609Z,3.52
2018-11-21T02:17:11.482Z,3.57
2018-11-21T02:18:21.642Z,3.54
2018-11-21T02:19:31.516Z,3.54
2018-11-21T02:20:41.671Z,3.54
2018-11-21T02:21:51.551Z,3.51
2018-11-21T02:23:01.432Z,3.66
2018-11-21T02:24:11.591Z,3.58
2018-11-21T02:25:21.517Z,3.65
2018-11-21T02:26:31.670Z,3.7
2018-11-21T02:27:41.286Z,3.66
2018-11-21T02:28:51.446Z,3.68
2018-11-21T02:30:01.319Z,3.7
2018-11-21T02:31:11.534Z,3.54
2018-11-21T02:32:21.704Z,3.68
2018-11-21T02:33:31.585Z,3.65
2018-11-21T02:34:41.748Z,3.69
2018-11-21T02:35:51.631Z,3.55
2018-11-21T02:37:01.792Z,3.72
2018-11-21T02:38:11.676Z,3.68
2018-11-21T02:39:21.840Z,3.68
2018-11-21T02:40:31.979Z,3.72
2018-11-21T02:41:42.139Z,3.55
2018-11-21T02:42:52.334Z,3.69
2018-11-21T02:44:02.220Z,3.76
2018-11-21T02:45:12.372Z,3.68
2018-11-21T02:46:22.548Z,3.52
2018-11-21T02:47:32.150Z,3.61
2018-11-21T02:48:41.757Z,3.65
2018-11-21T02:49:51.363Z,3.66
2018-11-21T02:51:00.978Z,3.72
2018-11-21T02:52:11.140Z,3.69
2018-11-21T02:53:21.294Z,3.69
2018-11-21T02:54:31.461Z,3.66
2018-11-21T02:55:41.633Z,3.54
2018-11-21T02:56:51.515Z,3.6
2018-11-21T02:58:01.395Z,3.7
2018-11-21T02:59:11.287Z,3.62
2018-11-21T03:00:21.498Z,3.66
2018-11-21T03:01:31.650Z,3.61
2018-11-21T03:02:41.802Z,3.76
2018-11-21T03:03:51.961Z,3.69
2018-11-21T03:05:02.141Z,3.68
2018-11-21T03:06:12.351Z,3.72
2018-11-21T03:07:22.501Z,3.68
2018-11-21T03:08:32.656Z,3.55
2018-11-21T03:09:42.805Z,3.6
2018-11-21T03:10:52.966Z,3.57
2018-11-21T03:12:03.131Z,3.61
2018-11-21T03:13:13.303Z,3.55
2018-11-21T03:14:23.515Z,3.65
2018-11-21T03:15:33.133Z,3.51
2018-11-21T03:16:43.278Z,3.69
2018-11-21T03:17:53.160Z,3.68
2018-11-21T03:19:03.307Z,3.69
2018-11-21T03:20:13.462Z,3.54
2018-11-21T03:21:23.079Z,3.69
2018-11-21T03:22:33.236Z,3.62
2018-11-21T03:23:43.441Z,3.68
2018-11-21T03:24:53.595Z,3.66
2018-11-21T03:26:03.780Z,3.57
2018-11-21T03:27:13.678Z,3.55
2018-11-21T03:28:23.927Z,3.62
2018-11-21T03:29:33.812Z,3.68
2018-11-21T03:30:43.971Z,3.57
2018-11-21T03:31:54.221Z,3.55
2018-11-21T03:33:04.119Z,3.52
2018-11-21T03:34:14.277Z,3.52
2018-11-21T03:35:24.178Z,3.48
2018-11-21T03:36:34.121Z,3.55
2018-11-21T03:37:44.279Z,3.54
2018-11-21T03:38:54.438Z,3.54
2018-11-21T03:40:04.594Z,3.57
2018-11-21T03:41:14.523Z,3.58
2018-11-21T03:42:24.402Z,3.68
2018-11-21T03:43:34.017Z,3.52
2018-11-21T03:44:44.174Z,3.7
2018-11-21T03:45:53.783Z,3.58
2018-11-21T03:47:03.393Z,3.5
2018-11-21T03:48:13.537Z,3.54
2018-11-21T03:49:23.689Z,3.54
2018-11-21T03:50:33.573Z,3.66
2018-11-21T03:51:43.469Z,3.51
2018-11-21T03:52:53.357Z,3.61
2018-11-21T03:54:03.247Z,3.48
2018-11-21T03:55:13.406Z,3.54
2018-11-21T03:56:23.334Z,3.57
2018-11-21T03:57:33.503Z,3.58
2018-11-21T03:58:43.677Z,3.68
2018-11-21T03:59:53.292Z,3.65
2018-11-21T04:01:03.173Z,3.69
2018-11-21T04:02:13.057Z,3.7
2018-11-21T04:03:22.953Z,3.66
2018-11-21T04:04:32.846Z,3.65
2018-11-21T04:05:42.738Z,3.72
2018-11-21T04:06:52.356Z,3.68
2018-11-21T04:08:02.239Z,3.69
2018-11-21T04:09:11.861Z,3.66
2018-11-21T04:10:21.519Z,3.68
2018-11-21T04:11:31.133Z,3.66
2018-11-21T04:12:41.300Z,3.66
2018-11-21T04:13:51.183Z,3.66
2018-11-21T04:15:01.339Z,3.6
2018-11-21T04:16:11.267Z,3.68
2018-11-21T04:17:21.659Z,3.5
2018-11-21T04:18:31.309Z,3.58
2018-11-21T04:19:41.459Z,3.55
2018-11-21T04:20:51.343Z,3.7
2018-11-21T04:22:01.517Z,3.68
2018-11-21T04:23:11.138Z,3.51
2018-11-21T04:24:21.306Z,3.66
2018-11-21T04:25:31.464Z,3.51
2018-11-21T04:26:41.629Z,3.61
2018-11-21T04:27:51.783Z,3.72
2018-11-21T04:29:01.677Z,3.66
2018-11-21T04:30:11.559Z,3.7
2018-11-21T04:31:21.439Z,3.65
2018-11-21T04:32:30.778Z,3.62
2018-11-21T04:33:40.989Z,3.69
2018-11-21T04:34:51.189Z,3.65
2018-11-21T04:36:01.083Z,3.52
2018-11-21T04:37:10.961Z,3.66
2018-11-21T04:38:20.575Z,3.68
2018-11-21T04:39:30.755Z,3.66
2018-11-21T04:40:40.914Z,3.51
2018-11-21T04:41:51.063Z,3.66
2018-11-21T04:43:01.225Z,3.57
2018-11-21T04:44:11.381Z,3.73
2018-11-21T04:45:21.549Z,3.68
2018-11-21T04:46:31.432Z,3.57
2018-11-21T04:47:41.589Z,3.68
2018-11-21T04:48:51.749Z,3.66
2018-11-21T04:50:01.909Z,3.52
2018-11-21T04:51:12.087Z,3.58
2018-11-21T04:52:21.966Z,3.54
2018-11-21T04:53:31.583Z,3.62
2018-11-21T04:54:41.744Z,3.55
2018-11-21T04:55:51.911Z,3.54
2018-11-21T04:57:02.068Z,3.66
2018-11-21T04:58:12.228Z,3.68
2018-11-21T04:59:22.103Z,3.68
2018-11-21T05:00:32.264Z,3.57
2018-11-21T05:01:42.145Z,3.47
2018-11-21T05:02:51.794Z,3.54
2018-11-21T05:04:01.411Z,3.55
2018-11-21T05:05:11.564Z,3.6
2018-11-21T05:06:21.718Z,3.54
2018-11-21T05:07:31.877Z,3.55
2018-11-21T05:08:42.030Z,3.72
2018-11-21T05:09:51.916Z,3.66
2018-11-21T05:11:02.121Z,3.58
2018-11-21T05:12:12.020Z,3.65
2018-11-21T05:13:22.179Z,3.72
2018-11-21T05:14:32.060Z,3.7
2018-11-21T05:15:41.673Z,3.66
2018-11-21T05:16:51.856Z,3.68
2018-11-21T05:18:01.465Z,3.69
2018-11-21T05:19:11.614Z,3.61
2018-11-21T05:20:21.506Z,3.69
2018-11-21T05:21:31.669Z,3.65
2018-11-21T05:22:41.833Z,3.62
2018-11-21T05:23:51.996Z,3.68
2018-11-21T05:25:01.613Z,3.57
2018-11-21T05:26:11.231Z,3.54
2018-11-21T05:27:21.389Z,3.57
2018-11-21T05:28:31.543Z,3.54
2018-11-21T05:29:40.875Z,3.6
2018-11-21T05:30:50.749Z,3.72
2018-11-21T05:32:00.355Z,3.51
2018-11-21T05:33:10.255Z,3.6
2018-11-21T05:34:20.146Z,3.68
2018-11-21T05:35:30.308Z,3.66
2018-11-21T05:36:40.187Z,3.69
2018-11-21T05:37:50.348Z,3.61
2018-11-21T05:39:00.223Z,3.72
2018-11-21T05:40:10.110Z,3.7
2018-11-21T05:41:19.990Z,3.7
2018-11-21T05:42:30.140Z,3.7
2018-11-21T05:43:40.023Z,3.75
2018-11-21T05:44:49.645Z,3.72
2018-11-21T05:45:59.535Z,3.62
2018-11-21T05:47:09.715Z,3.68
2018-11-21T05:48:19.325Z,3.69
2018-11-21T05:49:28.985Z,3.6
2018-11-21T05:50:38.597Z,3.72
2018-11-21T05:51:48.476Z,3.61
2018-11-21T05:52:58.347Z,3.76
2018-11-21T05:54:07.955Z,3.62
2018-11-21T05:55:17.833Z,3.61
2018-11-21T05:56:27.713Z,3.62
2018-11-21T05:57:37.597Z,3.79
2018-11-21T05:58:47.481Z,3.58
2018-11-21T05:59:57.632Z,3.7
2018-11-21T06:01:07.818Z,3.78
2018-11-21T06:02:17.968Z,3.73
2018-11-21T06:03:28.116Z,3.69
2018-11-21T06:04:37.999Z,3.65
2018-11-21T06:05:47.886Z,3.66
2018-11-21T06:06:57.821Z,3.69
2018-11-21T06:08:07.695Z,3.72
2018-11-21T06:09:17.850Z,3.73
2018-11-21T06:10:27.470Z,3.6
2018-11-21T06:11:37.359Z,3.68
2018-11-21T06:12:47.516Z,3.62
2018-11-21T06:13:57.683Z,3.62
2018-11-21T06:15:07.300Z,3.68
2018-11-21T06:16:17.452Z,3.66
2018-11-21T06:17:27.628Z,3.76
2018-11-21T06:18:37.788Z,3.69
2018-11-21T06:19:47.669Z,3.76
2018-11-21T06:20:57.275Z,3.69
2018-11-21T06:22:07.193Z,3.58
2018-11-21T06:23:17.403Z,3.6
2018-11-21T06:24:27.286Z,3.7
2018-11-21T06:25:37.174Z,3.7
2018-11-21T06:26:47.340Z,3.68
2018-11-21T06:27:57.223Z,3.75
2018-11-21T06:29:07.389Z,3.73
2018-11-21T06:30:17.546Z,3.62
2018-11-21T06:31:27.429Z,3.66
2018-11-21T06:32:37.590Z,3.73
2018-11-21T06:33:47.496Z,3.78
2018-11-21T06:34:57.661Z,3.68
2018-11-21T06:36:07.828Z,3.54
2018-11-21T06:37:17.716Z,3.57
2018-11-21T06:38:27.942Z,3.66
2018-11-21T06:39:38.089Z,3.65
2018-11-21T06:40:47.967Z,3.55
2018-11-21T06:41:57.861Z,3.62
2018-11-21T06:43:08.019Z,3.75
2018-11-21T06:44:17.632Z,3.66
2018-11-21T06:45:26.972Z,3.69
2018-11-21T06:46:37.133Z,3.65
2018-11-21T06:47:47.010Z,3.54
2018-11-21T06:48:56.624Z,3.52
2018-11-21T06:50:06.511Z,3.58
2018-11-21T06:51:16.393Z,3.66
2018-11-21T06:52:27.170Z,3.7
2018-11-21T06:53:37.321Z,3.57
2018-11-21T06:54:47.470Z,3.52
2018-11-21T06:55:57.348Z,3.54
2018-11-21T06:57:07.241Z,3.55
2018-11-21T06:58:16.905Z,3.54
2018-11-21T06:59:26.785Z,3.5
2018-11-21T07:00:36.396Z,3.66
2018-11-21T07:01:46.278Z,3.52
2018-11-21T07:02:56.173Z,3.52
2018-11-21T07:04:06.118Z,3.62
2018-11-21T07:05:16.299Z,3.66
2018-11-21T07:06:26.450Z,3.69
2018-11-21T07:07:36.604Z,3.45
2018-11-21T07:08:46.758Z,3.5
2018-11-21T07:09:56.918Z,3.6
2018-11-21T07:11:07.087Z,3.54
2018-11-21T07:12:17.253Z,3.5
2018-11-21T07:13:27.407Z,3.47
2018-11-21T07:14:37.568Z,3.5
2018-11-21T07:15:47.722Z,3.57
2018-11-21T07:16:57.334Z,3.45
2018-11-21T07:18:07.221Z,3.45
2018-11-21T07:19:17.385Z,3.57
2018-11-21T07:20:27.276Z,3.45
2018-11-21T07:21:36.931Z,3.51
2018-11-21T07:22:46.810Z,3.42
2018-11-21T07:23:56.423Z,3.47
2018-11-21T07:25:06.309Z,3.52
2018-11-21T07:26:16.216Z,3.51
2018-11-21T07:27:26.388Z,3.58
2018-11-21T07:28:35.995Z,3.61
2018-11-21T07:29:46.150Z,3.52
2018-11-21T07:30:56.031Z,3.5
2018-11-21T07:32:06.187Z,3.48
2018-11-21T07:33:16.346Z,3.51
2018-11-21T07:34:26.531Z,3.54
2018-11-21T07:35:36.739Z,3.57
2018-11-21T07:36:46.897Z,3.5
2018-11-21T07:37:56.508Z,3.51
2018-11-21T07:39:06.404Z,3.51
2018-11-21T07:40:16.559Z,3.4
2018-11-21T07:41:26.720Z,3.4
2018-11-21T07:42:36.882Z,3.36
2018-11-21T07:43:47.047Z,3.54
2018-11-21T07:44:57.210Z,3.54
2018-11-21T07:46:07.109Z,3.48
2018-11-21T07:47:17.027Z,3.51
2018-11-21T07:48:31.664Z,3.4
2018-11-21T07:49:41.814Z,3.45
2018-11-21T07:50:51.960Z,3.48
2018-11-21T07:52:07.564Z,3.42
2018-11-21T07:53:17.450Z,3.48
2018-11-21T07:54:27.605Z,3.55
2018-11-21T07:55:37.214Z,3.54
2018-11-21T07:56:47.375Z,3.51
2018-11-21T07:57:56.985Z,3.72
2018-11-21T07:59:07.203Z,3.66
2018-11-21T08:00:17.357Z,3.57
2018-11-21T08:01:26.990Z,3.62
2018-11-21T08:02:37.187Z,3.76
2018-11-21T08:03:46.796Z,3.65
2018-11-21T08:04:56.946Z,3.51
2018-11-21T08:06:07.102Z,3.54
2018-11-21T08:07:17.266Z,3.72
2018-11-21T08:08:27.427Z,3.65
2018-11-21T08:09:37.587Z,3.68
2018-11-21T08:10:47.192Z,3.54
2018-11-21T08:11:57.342Z,3.51
2018-11-21T08:13:07.278Z,3.69
2018-11-21T08:14:17.160Z,3.55
2018-11-21T08:15:27.040Z,3.66
2018-11-21T08:16:37.207Z,3.68
2018-11-21T08:17:47.414Z,3.66
2018-11-21T08:18:57.285Z,3.72
2018-11-21T08:20:06.897Z,3.57
2018-11-21T08:21:16.791Z,3.66
2018-11-21T08:22:26.942Z,3.66
2018-11-21T08:23:36.831Z,3.7
2018-11-21T08:24:46.709Z,3.72
2018-11-21T08:25:56.861Z,3.62
2018-11-21T08:27:07.019Z,3.66
2018-11-21T08:28:16.902Z,3.7
2018-11-21T08:29:26.511Z,3.69
2018-11-21T08:30:36.396Z,3.72
2018-11-21T08:31:46.275Z,3.62
2018-11-21T08:32:56.157Z,3.68
2018-11-21T08:34:06.317Z,3.78
2018-11-21T08:35:16.209Z,3.84
2018-11-21T08:36:26.377Z,3.87
2018-11-21T08:37:36.263Z,3.87
2018-11-21T08:38:46.156Z,3.69
2018-11-21T08:39:56.323Z,3.61
2018-11-21T08:41:06.209Z,3.7
2018-11-21T08:42:16.091Z,3.7
2018-11-21T08:43:26.035Z,3.78
2018-11-21T08:44:36.205Z,3.83
2018-11-21T08:45:46.080Z,3.72
2018-11-21T08:46:56.240Z,3.73
2018-11-21T08:48:06.399Z,3.7
2018-11-21T08:49:16.562Z,3.73
2018-11-21T08:50:26.714Z,3.73
2018-11-21T08:51:36.870Z,3.72
2018-11-21T08:52:46.492Z,3.66
2018-11-21T08:53:56.646Z,3.69
2018-11-21T08:55:11.497Z,3.7
2018-11-21T08:56:21.387Z,3.73
2018-11-21T08:57:31.271Z,3.75
2018-11-21T08:58:41.440Z,3.86
2018-11-21T08:59:51.592Z,3.86
2018-11-21T09:01:01.752Z,3.86
2018-11-21T09:02:11.914Z,3.86
2018-11-21T09:03:22.071Z,3.84
2018-11-21T09:04:32.228Z,3.8
2018-11-21T09:05:42.380Z,3.79
2018-11-21T09:06:52.308Z,3.8
2018-11-21T09:08:01.931Z,3.86
2018-11-21T09:09:12.101Z,3.87
2018-11-21T09:10:22.263Z,3.8
2018-11-21T09:11:32.428Z,3.9
2018-11-21T09:12:42.317Z,3.93
2018-11-21T09:13:55.752Z,3.88
2018-11-21T09:15:06.024Z,3.97
2018-11-21T09:16:16.183Z,4
2018-11-21T09:17:26.060Z,4.05
2018-11-21T09:18:36.227Z,3.78
2018-11-21T09:19:46.120Z,3.9
2018-11-21T09:20:56.275Z,3.9
2018-11-21T09:22:06.442Z,3.8
2018-11-21T09:23:16.058Z,3.87
2018-11-21T09:24:26.217Z,3.93
2018-11-21T09:25:36.374Z,4.05
2018-11-21T09:26:46.539Z,3.88
2018-11-21T09:27:56.747Z,3.96
2018-11-21T09:29:06.905Z,4.04
2018-11-21T09:30:17.066Z,4.06
2018-11-21T09:31:27.229Z,4.09
2018-11-21T09:32:36.844Z,4.02
2018-11-21T09:33:47.012Z,4.04
2018-11-21T09:34:57.177Z,3.91
2018-11-21T09:36:07.347Z,4
2018-11-21T09:37:17.505Z,3.93
2018-11-21T09:38:27.387Z,3.97
2018-11-21T09:39:37.276Z,3.91
2018-11-21T09:40:47.158Z,3.9
2018-11-21T09:41:57.046Z,3.9
2018-11-21T09:43:06.925Z,3.91
2018-11-21T09:44:17.096Z,3.91
2018-11-21T09:45:27.262Z,3.84
2018-11-21T09:46:37.148Z,3.88
2018-11-21T09:47:47.304Z,3.96
2018-11-21T09:48:57.232Z,4.02
2018-11-21T09:50:06.852Z,4.08
2018-11-21T09:51:16.739Z,4.11
2018-11-21T09:52:26.899Z,4.06
2018-11-21T09:53:36.782Z,3.93
2018-11-21T09:54:46.935Z,3.88
2018-11-21T09:55:57.101Z,3.91
2018-11-21T09:57:06.502Z,3.93
2018-11-21T09:58:16.675Z,4.06
2018-11-21T09:59:26.288Z,3.94
2018-11-21T10:00:36.452Z,3.94
2018-11-21T10:01:46.622Z,3.9
2018-11-21T10:02:56.231Z,3.93
2018-11-21T10:04:06.442Z,4.08
2018-11-21T10:05:16.336Z,4.15
2018-11-21T10:06:26.221Z,4.16
2018-11-21T10:07:36.396Z,4.18
2018-11-21T10:08:46.054Z,4.11
2018-11-21T10:09:55.939Z,4.12
2018-11-21T10:11:05.827Z,4.18
2018-11-21T10:12:15.440Z,4.14
2018-11-21T10:13:25.336Z,4.2
2018-11-21T10:14:35.499Z,4.15
2018-11-21T10:15:45.112Z,4.23
2018-11-21T10:16:54.997Z,4.23
2018-11-21T10:18:05.169Z,4.15
2018-11-21T10:19:15.335Z,4.24
2018-11-21T10:20:25.216Z,4.29
2018-11-21T10:21:35.106Z,4.36
2018-11-21T10:22:45.002Z,4.32
2018-11-21T10:23:55.167Z,4.24
2018-11-21T10:25:05.340Z,4.22
2018-11-21T10:26:15.232Z,4.23
2018-11-21T10:27:25.123Z,4.15
2018-11-21T10:28:34.741Z,4.24
2018-11-21T10:29:44.909Z,4.29
2018-11-21T10:30:55.066Z,4.32
2018-11-21T10:32:05.224Z,4.32
2018-11-21T10:33:15.388Z,4.29
2018-11-21T10:34:25.272Z,4.33
2018-11-21T10:35:38.479Z,4.36
2018-11-21T10:36:48.633Z,4.29
2018-11-21T10:37:58.264Z,4.33
2018-11-21T10:39:08.426Z,4.3
2018-11-21T10:40:18.323Z,4.33
2018-11-21T10:41:28.508Z,4.29
2018-11-21T10:42:38.672Z,4.24
2018-11-21T10:43:48.330Z,4.32
2018-11-21T10:44:58.212Z,4.22
2018-11-21T10:46:08.372Z,4.29
2018-11-21T10:47:18.538Z,4.27
2018-11-21T10:48:28.701Z,4.34
2018-11-21T10:49:38.631Z,4.4
2018-11-21T10:50:48.793Z,4.34
2018-11-21T10:51:58.947Z,4.32
2018-11-21T10:53:09.103Z,4.23
2018-11-21T10:54:19.263Z,4.23
2018-11-21T10:55:28.873Z,4.27
2018-11-21T10:56:38.493Z,4.29
2018-11-21T10:57:48.648Z,4.34
2018-11-21T10:58:58.799Z,4.42
2018-11-21T11:00:08.964Z,4.47
2018-11-21T11:01:19.187Z,4.32
2018-11-21T11:02:29.349Z,4.32
2018-11-21T11:03:39.240Z,4.33
2018-11-21T11:04:49.137Z,4.22
2018-11-21T11:05:59.309Z,4.12
2018-11-21T11:07:09.468Z,4.2
2018-11-21T11:08:19.637Z,4.3
2018-11-21T11:09:29.807Z,4.23
2018-11-21T11:10:39.705Z,4.36
2018-11-21T11:11:49.588Z,4.36
2018-11-21T11:12:59.751Z,4.44
2018-11-21T11:14:09.643Z,4.48
2018-11-21T11:15:19.802Z,4.36
2018-11-21T11:16:29.695Z,4.32
2018-11-21T11:17:39.850Z,4.4
2018-11-21T11:18:50.073Z,4.4
2018-11-21T11:20:00.241Z,4.47
2018-11-21T11:21:14.211Z,4.55
2018-11-21T11:22:24.370Z,4.52
2018-11-21T11:23:34.256Z,4.6
2018-11-21T11:24:44.147Z,4.69
2018-11-21T11:25:54.306Z,4.63
2018-11-21T11:27:04.194Z,4.7
2018-11-21T11:28:17.127Z,4.63
2018-11-21T11:29:27.018Z,4.69
2018-11-21T11:30:37.180Z,4.73
2018-11-21T11:31:47.339Z,4.8
2018-11-21T11:32:57.224Z,4.75
2018-11-21T11:34:07.394Z,4.73
2018-11-21T11:35:17.276Z,4.66
2018-11-21T11:36:27.477Z,4.65
2018-11-21T11:37:37.639Z,4.69
2018-11-21T11:38:47.522Z,4.67
2018-11-21T11:39:57.681Z,4.67
2018-11-21T11:41:07.837Z,4.55
2018-11-21T11:42:18.042Z,4.59
2018-11-21T11:43:28.201Z,4.59
2018-11-21T11:44:38.088Z,4.62
2018-11-21T11:45:48.255Z,4.7
2018-11-21T11:46:58.142Z,4.63
2018-11-21T11:48:08.299Z,4.65
2018-11-21T11:49:18.454Z,4.7
2018-11-21T11:50:28.343Z,4.62
2018-11-21T11:51:38.237Z,4.66
2018-11-21T11:52:48.392Z,4.63
2018-11-21T11:53:58.280Z,4.55
2018-11-21T11:55:08.445Z,4.6
2018-11-21T11:56:18.332Z,4.63
2018-11-21T11:57:28.227Z,4.55
2018-11-21T11:58:38.114Z,4.69
2018-11-21T11:59:47.999Z,4.7
2018-11-21T12:00:58.159Z,4.69
2018-11-21T12:02:08.544Z,4.72
2018-11-21T12:03:20.926Z,4.77
2018-11-21T12:04:30.812Z,4.7
2018-11-21T12:05:40.701Z,4.73
2018-11-21T12:06:50.581Z,4.85
2018-11-21T12:08:00.463Z,4.84
2018-11-21T12:09:10.358Z,4.75
2018-11-21T12:10:20.525Z,4.72
2018-11-21T12:11:30.413Z,4.73
2018-11-21T12:12:45.115Z,4.75
2018-11-21T12:13:55.000Z,4.7
2018-11-21T12:15:05.154Z,4.72
2018-11-21T12:16:14.767Z,4.58
2018-11-21T12:17:24.923Z,4.65
2018-11-21T12:18:34.812Z,4.67
2018-11-21T12:19:44.708Z,4.69
2018-11-21T12:20:54.872Z,4.8
2018-11-21T12:22:05.024Z,4.77
2018-11-21T12:23:15.811Z,4.78
2018-11-21T12:24:26.003Z,4.77
2018-11-21T12:25:36.166Z,4.75
2018-11-21T12:26:46.053Z,4.72
2018-11-21T12:27:55.666Z,4.7
2018-11-21T12:29:05.883Z,4.78
2018-11-21T12:30:15.769Z,4.78
2018-11-21T12:31:25.945Z,4.72
2018-11-21T12:32:41.680Z,4.72
2018-11-21T12:33:51.264Z,4.72
2018-11-21T12:35:01.158Z,4.73
2018-11-21T12:36:11.336Z,4.72
2018-11-21T12:37:21.235Z,4.72
2018-11-21T12:38:31.400Z,4.77
2018-11-21T12:39:40.746Z,4.69
2018-11-21T12:40:50.360Z,4.69
2018-11-21T12:42:00.514Z,4.59
2018-11-21T12:43:15.713Z,4.6
2018-11-21T12:44:25.603Z,4.62
2018-11-21T12:45:35.484Z,4.7
2018-11-21T12:46:45.363Z,4.78
2018-11-21T12:47:55.520Z,4.73
2018-11-21T12:49:05.680Z,4.75
2018-11-21T12:50:15.834Z,4.65
2018-11-21T12:51:25.726Z,4.67
2018-11-21T12:52:35.897Z,4.72
2018-11-21T12:53:46.060Z,4.72
2018-11-21T12:54:56.221Z,4.7
2018-11-21T12:56:05.555Z,4.69
2018-11-21T12:57:15.438Z,4.65
2018-11-21T12:58:25.657Z,4.67
2018-11-21T12:59:35.643Z,4.66
2018-11-21T13:00:45.628Z,4.54
2018-11-21T13:01:55.781Z,4.7
2018-11-21T13:03:06.003Z,4.66
2018-11-21T13:04:16.458Z,4.72
2018-11-21T13:05:26.368Z,4.65
2018-11-21T13:06:36.257Z,4.73
2018-11-21T13:07:46.414Z,4.8
2018-11-21T13:08:56.303Z,4.7
2018-11-21T13:10:06.520Z,4.67
2018-11-21T13:11:16.407Z,4.63
2018-11-21T13:12:26.393Z,4.69
2018-11-21T13:13:36.290Z,4.73
2018-11-21T13:14:46.500Z,4.78
2018-11-21T13:15:56.434Z,4.7
2018-11-21T13:17:06.361Z,4.62
2018-11-21T13:18:16.587Z,4.63
2018-11-21T13:19:26.794Z,4.6
2018-11-21T13:20:36.693Z,4.67
2018-11-21T13:21:46.628Z,4.7
2018-11-21T13:22:56.519Z,4.73
2018-11-21T13:24:06.406Z,4.73
2018-11-21T13:25:16.302Z,4.72
2018-11-21T13:26:26.192Z,4.73
2018-11-21T13:27:35.802Z,4.7
2018-11-21T13:28:45.688Z,4.77
2018-11-21T13:29:55.573Z,4.77
2018-11-21T13:31:05.207Z,4.78
2018-11-21T13:32:15.357Z,4.77
2018-11-21T13:33:25.238Z,4.82
2018-11-21T13:34:35.126Z,4.89
2018-11-21T13:35:45.293Z,4.77
2018-11-21T13:36:55.218Z,4.77
2018-11-21T13:38:05.101Z,4.58
2018-11-21T13:39:15.259Z,4.65
2018-11-21T13:40:25.418Z,4.72
2018-11-21T13:41:35.577Z,4.55
2018-11-21T13:42:45.203Z,4.59
2018-11-21T13:43:55.089Z,4.63
2018-11-21T13:45:04.976Z,4.63
2018-11-21T13:46:15.144Z,4.65
2018-11-21T13:47:24.756Z,4.48
2018-11-21T13:48:34.918Z,4.44
2018-11-21T13:49:45.072Z,4.47
2018-11-21T13:50:55.229Z,4.51
2018-11-21T13:52:05.119Z,4.58
2018-11-21T13:53:15.274Z,4.6
2018-11-21T13:54:25.436Z,4.72
2018-11-21T13:55:35.591Z,4.65
2018-11-21T13:56:45.751Z,4.6
2018-11-21T13:57:55.639Z,4.59
2018-11-21T13:59:05.250Z,4.66
2018-11-21T14:00:15.415Z,4.58
2018-11-21T14:01:25.577Z,4.59
2018-11-21T14:02:35.732Z,4.59
2018-11-21T14:03:45.896Z,4.55
2018-11-21T14:04:56.062Z,4.52
2018-11-21T14:06:05.943Z,4.72
2018-11-21T14:07:16.110Z,4.67
2018-11-21T14:08:26.293Z,4.72
2018-11-21T14:09:36.192Z,4.69
2018-11-21T14:10:46.357Z,4.7
2018-11-21T14:11:56.240Z,4.48
2018-11-21T14:13:06.417Z,4.55
2018-11-21T14:14:16.343Z,4.63
2018-11-21T14:15:26.357Z,4.55
2018-11-21T14:16:36.109Z,4.52
2018-11-21T14:17:46.262Z,4.55
2018-11-21T14:18:56.425Z,4.54
2018-11-21T14:20:06.608Z,4.6
2018-11-21T14:21:16.489Z,4.63
2018-11-21T14:22:26.382Z,4.6
2018-11-21T14:23:36.553Z,4.65
2018-11-21T14:24:46.445Z,4.69
2018-11-21T14:25:56.338Z,4.67
2018-11-21T14:27:06.240Z,4.62
2018-11-21T14:28:16.398Z,4.66
2018-11-21T14:29:26.278Z,4.52
2018-11-21T14:30:36.165Z,4.44
2018-11-21T14:31:45.781Z,4.5
2018-11-21T14:32:55.941Z,4.4
2018-11-21T14:34:05.833Z,4.42
2018-11-21T14:35:15.730Z,4.48
2018-11-21T14:36:25.889Z,4.45
2018-11-21T14:37:35.774Z,4.41
2018-11-21T14:38:45.382Z,4.44
2018-11-21T14:39:55.531Z,4.34
2018-11-21T14:41:05.693Z,4.33
2018-11-21T14:42:15.654Z,4.33
2018-11-21T14:43:25.540Z,4.36
2018-11-21T14:44:35.423Z,4.41
2018-11-21T14:45:45.635Z,4.3
2018-11-21T14:46:55.253Z,4.34
2018-11-21T14:48:05.133Z,4.14
2018-11-21T14:49:15.294Z,4.2
2018-11-21T14:50:25.450Z,4.12
2018-11-21T14:51:35.070Z,4.09
2018-11-21T14:52:45.238Z,4.11
2018-11-21T14:53:55.390Z,4.06
2018-11-21T14:55:05.560Z,4.14
2018-11-21T14:56:15.724Z,4.14
2018-11-21T14:57:25.609Z,4.08
2018-11-21T14:58:35.492Z,4.12
2018-11-21T14:59:45.651Z,4.04
2018-11-21T15:00:55.815Z,3.96
2018-11-21T15:02:05.720Z,4.06
2018-11-21T15:03:20.746Z,4.06
2018-11-21T15:04:30.900Z,4
2018-11-21T15:05:40.780Z,4.04
2018-11-21T15:06:50.661Z,4.04
2018-11-21T15:08:00.546Z,4.11
2018-11-21T15:09:10.757Z,4.04
2018-11-21T15:10:20.920Z,3.98
2018-11-21T15:11:31.085Z,3.94
2018-11-21T15:12:41.246Z,3.93
2018-11-21T15:13:51.400Z,3.94
2018-11-21T15:15:01.006Z,3.93
2018-11-21T15:16:11.166Z,3.98
2018-11-21T15:17:21.322Z,4.06
2018-11-21T15:18:31.480Z,3.91
2018-11-21T15:19:41.360Z,3.9
2018-11-21T15:20:51.514Z,3.9
2018-11-21T15:22:01.676Z,3.84
2018-11-21T15:23:11.829Z,3.84
2018-11-21T15:24:21.718Z,3.76
2018-11-21T15:25:31.600Z,3.76
2018-11-21T15:26:41.532Z,3.79
2018-11-21T15:27:51.692Z,3.78
2018-11-21T15:29:01.299Z,3.83
2018-11-21T15:30:11.451Z,3.75
2018-11-21T15:31:21.612Z,3.79
2018-11-21T15:32:31.498Z,3.66
2018-11-21T15:33:41.109Z,3.7
2018-11-21T15:34:50.761Z,3.7
2018-11-21T15:36:00.648Z,3.69
2018-11-21T15:37:10.540Z,3.72